Main page
METAR-TAF:

METAR-TAF

Airports :

Vlissingen, Netherlands

latitude: 51-27N, longitude: 3-36E, elevation: 10 m

Current weather observation

The report was made 38 minutes ago, at 04:25 UTC
Wind 12 kt from the South
Temperature 11°C
Humidity 87%
Pressure 995 hPa
Visibility 10 km or more
light rain

METAR: EHFS 050425Z AUTO 18012KT 9999 -RA OVC032/// 11/09 Q0995

Time: 07:03 (05:03 UTC)


TAF: missing

Weather observations and forecasts of more than 4000 airports (METAR and TAF reports).

The available stations are represented by yellow and red dots on the map.

Hover mouse over dot to see the name of the station.

Then click to see weather observations and forecasts.

To change the map : click on the green buttons with a black cross to zoom in, on the green button with a dash to zoom out, or on the green arrows for adjacent maps.


METAR-TAF: